Time;durP1;ratioP1;P1;durP2;ratioP2;P2;SDS_P1;SDS_P2;PMS_P1;PMS_P2;Temp;Humidity;BMP_temperature;BMP_pressure;BME280_temperature;BME280_humidity;BME280_pressure;Samples;Min_cycle;Max_cycle;Signal;HPM_P1;HPM_P2
2022/12/24 00:01:11;;;;;;;23.52;4.63;;;;;;;12.07;93.63;99773.78;8353326;28;20588;-53
2022/12/24 00:05:12;;;;;;;28.23;4.32;;;;;;;11.96;94.66;99771.38;8348313;28;20029;-50
2022/12/24 00:09:13;;;;;;;23.38;4.10;;;;;;;12.05;94.28;99781.22;8354342;28;20567;-50
2022/12/24 00:13:26;;;;;;;28.05;4.15;;;;;;;12.19;93.50;99777.81;8353241;28;20037;-50
2022/12/24 00:17:27;;;;;;;26.50;4.22;;;;;;;12.14;94.63;99783.75;8353432;28;20067;-51
2022/12/24 00:21:27;;;;;;;27.15;3.35;;;;;;;12.30;94.33;99788.34;8353293;28;20566;-53
2022/12/24 00:25:28;;;;;;;30.00;4.32;;;;;;;12.37;94.52;99790.19;8353294;28;20039;-53
2022/12/24 00:29:29;;;;;;;25.65;4.88;;;;;;;12.46;93.80;99785.63;8334220;28;20084;-50
2022/12/24 00:33:29;;;;;;;24.05;3.50;;;;;;;12.39;95.04;99790.03;8319909;28;20045;-50
2022/12/24 00:37:29;;;;;;;28.00;3.75;;;;;;;12.33;94.92;99790.72;8320799;28;20061;-50
2022/12/24 00:41:30;;;;;;;29.17;3.65;;;;;;;12.30;94.92;99791.03;8321754;28;20098;-50
2022/12/24 00:45:30;;;;;;;28.33;3.90;;;;;;;12.29;95.27;99805.63;8325291;28;20069;-50
2022/12/24 00:49:31;;;;;;;29.65;4.78;;;;;;;12.27;95.97;99813.06;8326023;28;20049;-50
2022/12/24 00:53:31;;;;;;;22.75;4.13;;;;;;;12.24;96.21;99805.28;8326029;28;20049;-50
2022/12/24 00:57:32;;;;;;;25.88;3.65;;;;;;;12.34;95.74;99805.94;8327118;28;20034;-50
2022/12/24 01:01:34;;;;;;;27.73;3.58;;;;;;;12.34;96.23;99824.91;8358367;28;20071;-51
2022/12/24 01:05:35;;;;;;;30.08;4.25;;;;;;;12.31;96.32;99825.25;8350850;28;20061;-50
2022/12/24 01:09:35;;;;;;;25.58;3.75;;;;;;;12.39;96.06;99825.28;8330127;28;20092;-50
2022/12/24 01:13:37;;;;;;;22.83;3.42;;;;;;;12.45;95.76;99839.00;8324724;28;20037;-50
2022/12/24 01:17:38;;;;;;;23.88;3.83;;;;;;;12.41;96.29;99861.19;8324367;28;20049;-50
2022/12/24 01:21:38;;;;;;;28.30;3.42;;;;;;;12.31;97.31;99858.63;8324051;28;20083;-50
2022/12/24 01:25:39;;;;;;;27.42;4.85;;;;;;;12.29;97.76;99862.53;8350256;28;20041;-52
2022/12/24 01:29:39;;;;;;;22.95;3.88;;;;;;;12.19;97.98;99865.38;8358856;28;20094;-52
2022/12/24 01:33:41;;;;;;;20.80;4.22;;;;;;;12.19;97.84;99875.38;8355632;28;20418;-53
2022/12/24 01:37:42;;;;;;;20.40;3.42;;;;;;;12.13;97.95;99881.50;8358650;28;20037;-50
2022/12/24 01:46:24;;;;;;;23.48;3.80;;;;;;;12.07;98.21;99874.84;8353193;28;20044;-52
2022/12/24 01:50:25;;;;;;;23.10;3.03;;;;;;;11.93;99.33;99887.16;8356650;28;20033;-51
2022/12/24 01:54:34;;;;;;;29.42;4.60;;;;;;;11.95;99.45;99894.31;8338100;28;20583;-51
2022/12/24 01:58:35;;;;;;;28.05;3.70;;;;;;;11.86;99.78;99899.69;8324336;28;20063;-51
2022/12/24 02:02:43;;;;;;;28.40;3.58;;;;;;;11.80;100.00;99903.03;8323113;28;20048;-51
2022/12/24 02:06:44;;;;;;;29.52;3.67;;;;;;;11.99;98.88;99895.66;8324145;28;20041;-52
2022/12/24 02:10:46;;;;;;;25.52;3.10;;;;;;;11.95;99.38;99910.56;8325005;28;20128;-52
2022/12/24 02:14:47;;;;;;;23.88;3.53;;;;;;;11.88;99.86;99921.19;8324384;28;20041;-51
2022/12/24 02:19:27;;;;;;;28.55;3.60;;;;;;;11.86;100.00;99932.19;8324416;28;20124;-52
2022/12/24 02:23:56;;;;;;;25.58;4.28;;;;;;;11.94;100.00;99936.78;8355326;28;20045;-51
2022/12/24 02:28:06;;;;;;;29.05;3.90;;;;;;;11.96;100.00;99939.31;8354576;28;20090;-52
2022/12/24 02:32:13;;;;;;;26.38;3.42;;;;;;;11.88;100.00;99946.41;8328070;28;20037;-51
2022/12/24 02:36:38;;;;;;;25.25;3.75;;;;;;;11.87;100.00;99943.88;8323623;28;20120;-51
2022/12/24 02:40:47;;;;;;;37.60;4.95;;;;;;;11.83;100.00;99956.88;8355466;28;20071;-51
2022/12/24 02:44:54;;;;;;;21.98;4.05;;;;;;;11.79;100.00;99960.94;8356423;28;20049;-51
2022/12/24 02:48:57;;;;;;;19.15;3.35;;;;;;;11.79;100.00;99960.94;8356502;28;20790;-52
2022/12/24 02:52:58;;;;;;;32.08;4.18;;;;;;;11.79;100.00;99966.34;8356216;28;20405;-51
2022/12/24 02:57:29;;;;;;;20.40;3.22;;;;;;;11.77;100.00;99962.94;8356536;28;20041;-51
2022/12/24 03:01:59;;;;;;;15.70;3.00;;;;;;;11.79;100.00;99962.78;8316997;28;20457;-51
2022/12/24 03:06:15;;;;;;;16.55;2.63;;;;;;;11.77;100.00;99962.94;8344822;28;20032;-54
2022/12/24 03:10:41;;;;;;;19.33;2.90;;;;;;;11.74;100.00;99967.81;8388356;28;20037;-51
2022/12/24 03:14:43;;;;;;;18.17;2.13;;;;;;;11.61;100.00;99970.94;8372520;28;20048;-51
2022/12/24 03:18:48;;;;;;;12.38;1.80;;;;;;;11.49;100.00;99969.53;8352016;28;20466;-52
2022/12/24 03:22:48;;;;;;;19.90;2.45;;;;;;;11.39;100.00;99971.50;8352150;28;20069;-51
2022/12/24 03:26:50;;;;;;;14.15;2.20;;;;;;;11.34;100.00;99986.50;8353374;28;20142;-51
2022/12/24 03:30:51;;;;;;;12.65;2.65;;;;;;;11.28;100.00;99982.56;8351940;28;20570;-51
2022/12/24 03:34:51;;;;;;;14.80;2.45;;;;;;;11.20;100.00;99987.91;8353757;28;20402;-51
2022/12/24 03:38:52;;;;;;;16.05;3.03;;;;;;;11.16;100.00;99991.94;8354267;28;20068;-51
2022/12/24 03:42:52;;;;;;;15.30;2.70;;;;;;;11.13;100.00;100004.97;8353292;28;20525;-54
2022/12/24 03:46:53;;;;;;;9.43;2.33;;;;;;;11.03;100.00;99988.81;8351006;28;20442;-53
2022/12/24 03:50:53;;;;;;;10.57;1.55;;;;;;;11.01;100.00;99995.38;8353692;28;20044;-51
2022/12/24 03:54:54;;;;;;;3.83;0.70;;;;;;;10.93;100.00;99981.78;8354242;28;20060;-51
2022/12/24 03:58:54;;;;;;;6.20;0.95;;;;;;;10.87;100.00;99987.81;8354409;28;20064;-52
2022/12/24 04:02:55;;;;;;;5.18;1.13;;;;;;;10.78;100.00;99994.16;8354790;28;20080;-51
2022/12/24 04:06:55;;;;;;;6.60;1.20;;;;;;;10.74;100.00;99999.00;8354966;28;20045;-51
2022/12/24 04:10:56;;;;;;;7.28;1.40;;;;;;;10.68;100.00;99988.84;8354438;28;20043;-52
2022/12/24 04:14:56;;;;;;;4.68;1.00;;;;;;;10.68;100.00;99980.72;8354034;28;20450;-52
2022/12/24 04:18:57;;;;;;;6.18;1.30;;;;;;;10.67;100.00;99987.13;8354170;28;20494;-51
2022/12/24 04:22:57;;;;;;;9.75;1.20;;;;;;;10.65;100.00;100002.66;8353365;28;20126;-52
2022/12/24 04:26:58;;;;;;;9.10;1.27;;;;;;;10.67;100.00;100022.25;8354420;28;20045;-51
2022/12/24 04:31:00;;;;;;;8.48;1.30;;;;;;;10.62;100.00;100015.63;8353967;28;20037;-51
2022/12/24 04:35:01;;;;;;;10.43;1.92;;;;;;;10.62;100.00;100027.28;8353683;28;20056;-54
2022/12/24 04:39:02;;;;;;;9.57;1.50;;;;;;;10.63;100.00;100036.22;8354219;28;20040;-51
2022/12/24 04:43:02;;;;;;;6.80;1.20;;;;;;;10.56;100.00;100038.72;8353003;28;20586;-51
2022/12/24 04:47:03;;;;;;;8.43;1.35;;;;;;;10.43;100.00;100037.38;8353206;28;20461;-51
2022/12/24 04:51:05;;;;;;;7.07;1.17;;;;;;;10.43;100.00;100043.59;8354065;28;20115;-51
2022/12/24 04:55:06;;;;;;;6.53;1.20;;;;;;;10.33;100.00;100050.94;8352039;28;20040;-52
2022/12/24 04:59:06;;;;;;;9.55;1.20;;;;;;;10.26;100.00;100046.28;8344444;28;20047;-51
2022/12/24 05:03:07;;;;;;;4.95;1.05;;;;;;;10.29;100.00;100051.38;8351919;28;20037;-52
2022/12/24 05:07:07;;;;;;;3.08;0.88;;;;;;;10.30;100.00;100053.94;8352952;28;20044;-51
2022/12/24 05:11:09;;;;;;;4.82;0.95;;;;;;;10.25;100.00;100056.25;8352960;28;20041;-51
2022/12/24 05:15:09;;;;;;;12.32;1.40;;;;;;;10.34;100.00;100051.78;8352881;28;20049;-51
2022/12/24 05:19:10;;;;;;;19.48;2.50;;;;;;;10.44;100.00;100069.66;8351870;28;20039;-51
2022/12/24 05:27:36;;;;;;;18.35;3.80;;;;;;;10.85;100.00;100066.38;8354821;28;20113;-51
2022/12/24 05:31:38;;;;;;;20.73;3.65;;;;;;;10.98;100.00;100066.84;8354624;28;20056;-51
2022/12/24 05:35:39;;;;;;;15.85;3.50;;;;;;;11.09;100.00;100066.63;8356229;28;20037;-51
2022/12/24 05:39:40;;;;;;;21.08;3.75;;;;;;;11.13;100.00;100073.41;8355895;28;20056;-52
2022/12/24 05:43:40;;;;;;;21.15;3.85;;;;;;;11.16;100.00;100069.56;8355594;28;20029;-51
2022/12/24 05:47:41;;;;;;;18.73;3.22;;;;;;;11.17;100.00;100079.38;8357093;28;20044;-52
2022/12/24 05:51:42;;;;;;;19.08;3.53;;;;;;;11.16;100.00;100092.03;8357883;28;20041;-51
2022/12/24 05:55:43;;;;;;;18.45;4.05;;;;;;;11.11;100.00;100093.53;8356034;28;20083;-51
2022/12/24 05:59:43;;;;;;;18.58;3.47;;;;;;;11.08;100.00;100101.94;8367873;28;20406;-51
2022/12/24 06:03:44;;;;;;;21.40;3.85;;;;;;;11.06;100.00;100095.84;8356583;28;20043;-51
2022/12/24 06:07:45;;;;;;;23.83;4.07;;;;;;;11.08;100.00;100094.69;8356279;28;20041;-51
2022/12/24 06:11:45;;;;;;;24.20;4.68;;;;;;;11.08;100.00;100100.09;8357508;28;20094;-53
2022/12/24 06:15:46;;;;;;;22.88;5.07;;;;;;;11.08;100.00;100108.22;8357135;28;20090;-51
2022/12/24 06:19:47;;;;;;;29.33;5.35;;;;;;;11.13;100.00;100108.59;8355292;28;20044;-51
2022/12/24 06:23:47;;;;;;;34.15;4.68;;;;;;;11.15;100.00;100112.00;8350955;28;20502;-52
2022/12/24 06:27:59;;;;;;;31.35;5.43;;;;;;;11.19;100.00;100107.16;8341789;28;20045;-51
2022/12/24 06:31:59;;;;;;;31.45;4.80;;;;;;;11.28;100.00;100120.56;8350178;28;20041;-52
2022/12/24 06:36:00;;;;;;;22.17;5.30;;;;;;;11.35;100.00;100118.94;8336722;28;20041;-51
2022/12/24 06:40:00;;;;;;;27.00;4.90;;;;;;;11.47;100.00;100123.13;8332803;28;20080;-53
2022/12/24 06:44:01;;;;;;;29.70;4.82;;;;;;;11.51;100.00;100129.94;8350773;28;20033;-51
2022/12/24 06:48:02;;;;;;;30.60;5.25;;;;;;;11.35;100.00;100124.34;8356418;28;20059;-52
2022/12/24 06:52:02;;;;;;;34.70;6.20;;;;;;;11.41;100.00;100133.72;8355421;28;20036;-52
2022/12/24 06:56:06;;;;;;;35.22;4.72;;;;;;;11.34;100.00;100144.31;8356350;28;20402;-54
2022/12/24 07:00:09;;;;;;;34.72;5.40;;;;;;;11.22;100.00;100145.53;8329411;28;20041;-51
2022/12/24 07:04:10;;;;;;;29.88;5.22;;;;;;;11.26;100.00;100141.53;8320343;28;20037;-54
2022/12/24 07:08:11;;;;;;;29.10;3.85;;;;;;;11.33;100.00;100148.03;8321211;28;20083;-51
2022/12/24 07:12:11;;;;;;;27.55;5.70;;;;;;;11.23;100.00;100144.53;8321522;28;20041;-51
2022/12/24 07:16:12;;;;;;;32.08;4.68;;;;;;;11.22;100.00;100158.22;8321276;28;20037;-52
2022/12/24 07:20:13;;;;;;;26.83;4.75;;;;;;;11.19;100.00;100155.84;8320472;28;20041;-52
2022/12/24 07:24:15;;;;;;;27.70;7.18;;;;;;;11.11;100.00;100164.72;8320702;28;20132;-52
2022/12/24 07:28:15;;;;;;;30.73;5.40;;;;;;;11.19;100.00;100178.31;8327764;28;20403;-53
2022/12/24 07:32:16;;;;;;;22.00;4.25;;;;;;;11.24;100.00;100170.59;8322459;28;20112;-53
2022/12/24 07:36:19;;;;;;;30.52;4.95;;;;;;;11.27;100.00;100178.41;8322617;28;20037;-54
2022/12/24 07:40:20;;;;;;;34.05;4.80;;;;;;;11.29;100.00;100192.63;8322031;28;20514;-54
2022/12/24 07:44:20;;;;;;;24.92;4.70;;;;;;;11.32;100.00;100195.03;8320505;28;20406;-51
2022/12/24 07:48:21;;;;;;;19.52;3.72;;;;;;;11.42;100.00;100195.84;8321897;28;20080;-55
2022/12/24 07:52:22;;;;;;;35.78;5.03;;;;;;;11.46;100.00;100194.50;8320243;28;20066;-52
2022/12/24 07:56:22;;;;;;;27.25;4.35;;;;;;;11.51;100.00;100191.34;8320742;28;20486;-52
2022/12/24 08:00:23;;;;;;;25.55;4.65;;;;;;;11.56;100.00;100202.56;8318352;28;20507;-55
2022/12/24 08:04:24;;;;;;;31.60;5.57;;;;;;;11.54;100.00;100215.41;8320558;28;20044;-53
2022/12/24 08:08:24;;;;;;;33.05;5.00;;;;;;;11.58;100.00;100212.22;8336415;28;20041;-53
2022/12/24 08:12:25;;;;;;;31.58;5.25;;;;;;;11.68;100.00;100221.16;8354210;28;20036;-53
2022/12/24 08:16:25;;;;;;;33.05;5.00;;;;;;;11.73;100.00;100220.69;8337108;28;20560;-52
2022/12/24 08:20:26;;;;;;;31.02;5.78;;;;;;;11.78;100.00;100227.34;8330433;28;20215;-53
2022/12/24 08:24:27;;;;;;;28.88;5.32;;;;;;;11.96;100.00;100231.91;8330926;28;20052;-53
2022/12/24 08:28:28;;;;;;;24.67;4.40;;;;;;;12.04;100.00;100240.09;8336249;28;20029;-53
2022/12/24 08:32:28;;;;;;;30.35;4.65;;;;;;;11.75;100.00;100241.19;8336588;28;20037;-55
2022/12/24 08:36:29;;;;;;;28.60;4.60;;;;;;;11.53;100.00;100257.84;8332228;28;20037;-52
2022/12/24 08:40:29;;;;;;;30.08;5.13;;;;;;;11.43;100.00;100257.06;8325327;28;20045;-51
2022/12/24 08:44:30;;;;;;;38.95;5.53;;;;;;;11.39;100.00;100255.69;8325130;28;20065;-51
2022/12/24 08:48:32;;;;;;;32.22;5.18;;;;;;;11.43;100.00;100257.06;8340535;28;20080;-52
2022/12/24 08:52:33;;;;;;;28.83;4.35;;;;;;;11.48;100.00;100254.78;8323505;28;20033;-52
2022/12/24 08:56:34;;;;;;;30.98;5.20;;;;;;;11.52;100.00;100258.00;8325689;28;20044;-51
2022/12/24 09:00:34;;;;;;;25.10;4.82;;;;;;;11.55;100.00;100261.28;8342332;28;20659;-55
2022/12/24 09:04:38;;;;;;;27.58;4.30;;;;;;;11.64;100.00;100263.09;8336428;28;20410;-51
2022/12/24 09:08:39;;;;;;;28.97;4.13;;;;;;;11.73;100.00;100275.72;8323210;28;20064;-54
2022/12/24 09:12:40;;;;;;;33.65;5.47;;;;;;;11.84;100.00;100283.59;8325185;28;20289;-51
2022/12/24 09:16:40;;;;;;;33.78;7.05;;;;;;;11.97;100.00;100282.34;8296253;28;20091;-52
2022/12/24 09:20:41;;;;;;;30.83;4.55;;;;;;;12.13;100.00;100293.38;8332855;28;20044;-51
2022/12/24 09:24:41;;;;;;;29.00;4.65;;;;;;;12.10;100.00;100297.22;8343219;28;20040;-51
2022/12/24 09:28:42;;;;;;;43.67;6.07;;;;;;;12.01;100.00;100305.44;8351828;28;20037;-52
2022/12/24 09:32:43;;;;;;;26.25;4.72;;;;;;;12.03;100.00;100319.66;8338843;28;20040;-53
2022/12/24 09:36:45;;;;;;;32.28;4.80;;;;;;;12.05;100.00;100334.78;8339846;28;20040;-52
2022/12/24 09:40:46;;;;;;;33.95;4.68;;;;;;;12.09;100.00;100335.31;8327567;28;20515;-52
2022/12/24 09:45:10;;;;;;;44.17;4.93;;;;;;;12.14;100.00;100338.41;8302270;28;20045;-51
2022/12/24 09:49:18;;;;;;;29.38;5.47;;;;;;;12.13;100.00;100326.72;8307776;28;20060;-54
2022/12/24 09:53:58;;;;;;;40.22;5.53;;;;;;;12.20;100.00;100337.81;8349441;28;20065;-54
2022/12/24 09:58:03;;;;;;;27.00;4.97;;;;;;;12.26;100.00;100348.03;8342376;28;20497;-52
2022/12/24 10:02:10;;;;;;;29.30;4.57;;;;;;;12.29;100.00;100355.84;8344595;28;20052;-52
2022/12/24 10:06:28;;;;;;;31.42;5.07;;;;;;;12.26;100.00;100356.16;8337698;28;20414;-52
2022/12/24 10:10:51;;;;;;;32.50;6.13;;;;;;;12.25;100.00;100359.84;8321205;28;20041;-51
2022/12/24 10:15:21;;;;;;;32.25;5.35;;;;;;;12.25;100.00;100359.84;8349258;28;20059;-55
2022/12/24 10:19:48;;;;;;;38.15;5.38;;;;;;;12.33;100.00;100357.22;8340097;28;20044;-52
2022/12/24 10:23:59;;;;;;;33.10;5.80;;;;;;;12.40;100.00;100355.59;8317927;28;20064;-53
2022/12/24 10:28:04;;;;;;;30.15;6.07;;;;;;;12.49;100.00;100360.06;8321671;28;20282;-52
2022/12/24 10:32:15;;;;;;;41.63;5.93;;;;;;;12.60;100.00;100367.97;8351026;28;20399;-52
2022/12/24 10:36:23;;;;;;;30.58;5.63;;;;;;;12.61;100.00;100369.66;8330170;28;20427;-53
2022/12/24 10:40:34;;;;;;;35.85;5.22;;;;;;;12.70;100.00;100363.31;8341815;28;20036;-54
2022/12/24 10:44:35;;;;;;;41.85;5.60;;;;;;;12.70;100.00;100364.16;8335297;28;20064;-53
2022/12/24 10:48:50;;;;;;;38.45;5.75;;;;;;;12.65;100.00;100361.06;8344511;28;20091;-55
2022/12/24 10:52:59;;;;;;;33.88;5.03;;;;;;;12.63;100.00;100359.53;8342265;28;20045;-55
2022/12/24 10:57:01;;;;;;;25.88;5.07;;;;;;;12.65;100.00;100360.19;8332320;28;20056;-51
2022/12/24 11:01:02;;;;;;;23.00;5.15;;;;;;;12.63;100.00;100359.53;8332871;28;20257;-55
2022/12/24 11:05:07;;;;;;;19.55;4.57;;;;;;;12.64;100.00;100372.94;8319993;28;20040;-51
2022/12/24 11:09:30;;;;;;;31.38;6.15;;;;;;;12.91;100.00;100355.66;8335886;28;20110;-51
2022/12/24 11:18:11;;;;;;;27.33;4.05;;;;;;;13.03;100.00;100359.84;8382673;27;20401;-50
2022/12/24 11:22:29;;;;;;;35.65;6.00;;;;;;;12.77;100.00;100353.50;8385556;28;20060;-51
2022/12/24 11:26:30;;;;;;;28.48;4.93;;;;;;;12.66;100.00;100356.50;8377073;28;20888;-54
2022/12/24 11:30:31;;;;;;;36.45;6.15;;;;;;;12.75;100.00;100356.38;8393892;28;20432;-49
2022/12/24 11:34:31;;;;;;;26.30;4.95;;;;;;;13.05;100.00;100352.41;8387612;27;20048;-49
2022/12/24 11:38:34;;;;;;;30.45;4.63;;;;;;;12.93;100.00;100351.75;8378009;28;20361;-50
2022/12/24 11:42:39;;;;;;;38.10;5.15;;;;;;;12.78;100.00;100371.50;8372604;28;20115;-49
2022/12/24 11:46:45;;;;;;;28.50;4.72;;;;;;;13.01;100.00;100359.13;8391045;27;20520;-49
2022/12/24 11:50:55;;;;;;;32.60;7.18;;;;;;;13.08;100.00;100362.91;8418419;27;20115;-54
2022/12/24 11:55:07;;;;;;;37.42;5.43;;;;;;;13.30;100.00;100356.94;8388129;27;20041;-51
2022/12/24 11:59:25;;;;;;;30.83;4.82;;;;;;;13.36;100.00;100356.31;8377338;28;20063;-53
2022/12/24 12:03:31;;;;;;;27.75;5.32;;;;;;;13.17;100.00;100351.09;8374521;28;20499;-54
2022/12/24 12:07:35;;;;;;;27.75;5.55;;;;;;;13.00;100.00;100354.75;8380183;28;20041;-51
2022/12/24 12:11:39;;;;;;;36.63;5.80;;;;;;;12.95;100.00;100357.03;8388892;28;20037;-54
2022/12/24 12:15:45;;;;;;;36.10;4.82;;;;;;;13.09;100.00;100359.19;8377730;28;20063;-52
2022/12/24 12:19:55;;;;;;;36.38;5.95;;;;;;;13.04;100.00;100367.81;8379335;28;20044;-51
2022/12/24 12:24:02;;;;;;;36.03;5.20;;;;;;;12.98;100.00;100371.16;8385059;28;20470;-52
2022/12/24 12:28:07;;;;;;;33.67;5.00;;;;;;;13.04;100.00;100377.81;8356999;28;20041;-52
2022/12/24 12:32:19;;;;;;;28.60;5.13;;;;;;;13.19;100.00;100381.66;8364171;28;20033;-53
2022/12/24 12:36:25;;;;;;;28.35;5.07;;;;;;;13.43;100.00;100379.06;8350075;28;20087;-52
2022/12/24 12:40:41;;;;;;;29.20;4.68;;;;;;;13.46;100.00;100386.91;8360700;28;20244;-53
2022/12/24 12:45:09;;;;;;;27.15;4.93;;;;;;;13.54;99.03;100384.19;8350275;28;20048;-54
2022/12/24 12:49:46;;;;;;;27.40;5.32;;;;;;;13.64;99.42;100376.81;8353305;28;20132;-54
2022/12/24 12:54:10;;;;;;;25.00;4.53;;;;;;;13.76;98.17;100375.50;8352537;28;20036;-53
2022/12/24 12:58:23;;;;;;;30.50;4.78;;;;;;;13.77;96.52;100374.47;8353328;28;20037;-51
2022/12/24 13:03:03;;;;;;;24.27;4.63;;;;;;;13.80;94.96;100379.56;8354304;28;20095;-54
2022/12/24 13:07:44;;;;;;;30.58;5.22;;;;;;;14.15;93.60;100382.03;8361485;28;20043;-52
2022/12/24 13:12:24;;;;;;;28.23;4.70;;;;;;;14.40;91.30;100385.69;8352107;28;20788;-50
2022/12/24 13:16:55;;;;;;;28.92;3.70;;;;;;;14.21;87.89;100388.69;8354467;28;20132;-50
2022/12/24 13:20:56;;;;;;;24.42;4.75;;;;;;;14.08;89.70;100397.31;8359286;28;20506;-52
2022/12/24 13:24:57;;;;;;;27.88;4.47;;;;;;;13.78;88.83;100395.19;8353352;28;20480;-51
2022/12/24 13:29:38;;;;;;;27.95;4.32;;;;;;;13.53;88.87;100404.25;8351130;28;20120;-52
2022/12/24 13:37:51;;;;;;;28.77;4.55;;;;;;;13.00;91.81;100409.00;8452598;27;20125;-54
2022/12/24 13:41:52;;;;;;;25.95;4.18;;;;;;;12.92;92.62;100411.63;8439258;27;20705;-51
2022/12/24 13:45:52;;;;;;;21.13;3.55;;;;;;;12.81;93.45;100409.19;8441355;27;20043;-53
2022/12/24 13:49:53;;;;;;;28.55;4.43;;;;;;;12.85;94.28;100418.69;8439229;27;20130;-51
2022/12/24 13:53:58;;;;;;;21.98;3.72;;;;;;;12.87;94.40;100424.81;8440734;27;20036;-54
2022/12/24 13:58:00;;;;;;;;;;;;;;;12.90;94.07;100429.94;8438039;27;20066;-52
2022/12/24 14:02:01;;;;;;;31.02;3.90;;;;;;;12.85;93.98;100418.69;8437926;27;20454;-51
2022/12/24 14:06:07;;;;;;;38.95;5.75;;;;;;;12.89;94.25;100433.63;8441360;27;20043;-54
2022/12/24 14:10:20;;;;;;;35.83;4.95;;;;;;;12.84;94.44;100422.44;8431493;27;20124;-51
2022/12/24 14:14:35;;;;;;;29.15;5.28;;;;;;;12.72;95.93;100420.97;8435947;27;20054;-54
2022/12/24 14:18:39;;;;;;;21.40;4.72;;;;;;;12.62;97.06;100436.44;8420542;27;20042;-54
2022/12/24 14:22:44;;;;;;;27.30;4.90;;;;;;;12.59;97.97;100436.78;8415560;27;20169;-55
2022/12/24 14:26:50;;;;;;;29.77;4.80;;;;;;;12.52;99.40;100432.97;8421436;27;20106;-51
2022/12/24 14:31:00;;;;;;;32.63;4.63;;;;;;;12.43;100.00;100431.19;8438045;27;20056;-53
2022/12/24 14:35:07;;;;;;;28.08;4.90;;;;;;;12.37;100.00;100431.81;8438313;27;20374;-52
2022/12/24 14:39:14;;;;;;;24.50;4.90;;;;;;;12.34;100.00;100442.97;8437888;27;20051;-50
2022/12/24 14:43:39;;;;;;;27.38;5.00;;;;;;;12.19;100.00;100444.47;8443078;27;20115;-53
2022/12/24 14:47:52;;;;;;;34.50;6.28;;;;;;;12.04;100.00;100451.44;8424457;27;20040;-53
2022/12/24 14:52:22;;;;;;;26.15;6.90;;;;;;;12.00;100.00;100461.72;8415123;28;20035;-51
2022/12/24 14:56:23;;;;;;;33.42;7.38;;;;;;;11.93;100.00;100466.06;8413709;28;20076;-55
2022/12/24 15:00:25;;;;;;;31.17;7.55;;;;;;;11.84;100.00;100484.03;8416995;28;20036;-53
2022/12/24 15:04:25;;;;;;;43.75;7.45;;;;;;;11.78;100.00;100490.03;8417828;28;20035;-53
2022/12/24 15:08:30;;;;;;;31.10;7.78;;;;;;;11.44;100.00;100491.56;8418688;28;20044;-51
2022/12/24 15:12:31;;;;;;;28.08;4.90;;;;;;;11.29;100.00;100487.59;8420998;28;20047;-53
2022/12/24 15:16:34;;;;;;;26.95;6.30;;;;;;;11.20;100.00;100504.72;8418793;28;20032;-52
2022/12/24 15:20:35;;;;;;;43.80;10.70;;;;;;;11.28;100.00;100512.97;8418385;28;20089;-52
2022/12/24 15:24:45;;;;;;;38.97;8.40;;;;;;;11.18;100.00;100512.16;8418009;28;20529;-54
2022/12/24 15:28:45;;;;;;;32.97;7.53;;;;;;;11.09;100.00;100509.44;8419575;28;20070;-51
2022/12/24 15:32:48;;;;;;;34.10;6.35;;;;;;;11.06;100.00;100507.88;8418088;28;20028;-53
2022/12/24 15:36:51;;;;;;;27.35;6.03;;;;;;;10.96;100.00;100515.16;8416247;28;20092;-52
2022/12/24 15:40:53;;;;;;;33.60;6.95;;;;;;;10.82;100.00;100521.00;8419171;28;20032;-53
2022/12/24 15:49:15;;;;;;;26.83;6.47;;;;;;;10.54;100.00;100535.34;8386339;27;20396;-54
2022/12/24 15:53:23;;;;;;;29.98;7.53;;;;;;;10.58;100.00;100534.06;8373205;28;20091;-52
2022/12/24 15:57:29;;;;;;;31.80;7.38;;;;;;;10.56;100.00;100530.66;8365009;28;20048;-52
2022/12/24 16:01:29;;;;;;;29.20;7.10;;;;;;;10.24;100.00;100532.72;8375577;28;20040;-50
2022/12/24 16:05:33;;;;;;;39.25;7.97;;;;;;;10.01;100.00;100533.91;8367237;28;20037;-51
2022/12/24 16:13:58;;;;;;;32.70;9.05;;;;;;;10.15;100.00;100530.84;8369463;27;20418;-50
2022/12/24 16:17:58;;;;;;;43.10;8.15;;;;;;;9.71;100.00;100518.56;8353329;28;20050;-55
2022/12/24 16:22:34;;;;;;;35.40;6.72;;;;;;;9.75;100.00;100511.03;8321196;28;20398;-53
2022/12/24 16:26:22;;;;;;;38.17;6.85;;;;;;;9.76;100.00;100512.78;8296436;28;20096;-55
2022/12/24 16:30:22;;;;;;;46.90;9.85;;;;;;;9.66;100.00;100519.94;8282472;28;20039;-51
2022/12/24 16:34:27;;;;;;;36.33;8.15;;;;;;;9.73;100.00;100529.25;8321363;28;20160;-54
2022/12/24 16:39:22;;;;;;;49.75;11.55;;;;;;;9.87;100.00;100518.91;8314720;28;20227;-52
2022/12/24 16:43:48;;;;;;;69.95;24.50;;;;;;;9.91;100.00;100532.97;8339810;28;20045;-52
2022/12/24 16:47:16;;;;;;;41.25;11.40;;;;;;;9.91;100.00;100543.78;8338297;28;20413;-55
2022/12/24 16:51:16;;;;;;;28.67;7.28;;;;;;;9.76;100.00;100546.00;8341691;28;20568;-50
2022/12/24 16:55:17;;;;;;;32.88;6.57;;;;;;;9.60;100.00;100539.38;8341117;28;20465;-53
2022/12/24 16:59:20;;;;;;;30.80;6.70;;;;;;;9.31;100.00;100549.16;8334770;28;20410;-50
2022/12/24 17:03:21;;;;;;;37.33;7.18;;;;;;;9.33;100.00;100547.19;8325557;28;20091;-52
2022/12/24 17:07:22;;;;;;;33.25;8.15;;;;;;;9.16;100.00;100561.25;8345562;28;20962;-50
2022/12/24 17:11:23;;;;;;;32.13;8.00;;;;;;;8.61;100.00;100558.78;8344986;28;20510;-51
2022/12/24 17:15:23;;;;;;;37.30;9.57;;;;;;;8.60;100.00;100557.09;8346524;28;20128;-50
2022/12/24 17:19:24;;;;;;;33.13;11.18;;;;;;;8.92;100.00;100544.44;8330971;28;20049;-54
2022/12/24 17:23:25;;;;;;;34.42;9.38;;;;;;;8.82;100.00;100546.22;8300277;28;20121;-50
2022/12/24 17:27:26;;;;;;;39.28;11.43;;;;;;;8.59;100.00;100534.66;8292211;28;20041;-51
2022/12/24 17:31:26;;;;;;;40.25;9.35;;;;;;;8.60;100.00;100535.53;8292260;28;20108;-51
2022/12/24 17:35:27;;;;;;;33.05;9.77;;;;;;;8.59;100.00;100547.28;8317027;28;22827;-51
2022/12/24 17:39:27;;;;;;;47.45;12.60;;;;;;;8.54;100.00;100541.44;8347659;28;20055;-52
2022/12/24 17:43:28;;;;;;;45.42;11.35;;;;;;;8.50;100.00;100548.03;8357483;28;20048;-51
2022/12/24 17:47:29;;;;;;;45.17;9.93;;;;;;;8.59;100.00;100549.97;8357614;28;20393;-51
2022/12/24 17:51:32;;;;;;;36.83;10.10;;;;;;;8.27;100.00;100549.06;8357597;28;20041;-50
2022/12/24 17:55:32;;;;;;;32.42;8.90;;;;;;;8.38;100.00;100546.38;8357792;28;20044;-51
2022/12/24 17:59:33;;;;;;;26.70;8.98;;;;;;;8.38;100.00;100549.91;8321846;28;20038;-50
2022/12/24 18:03:33;;;;;;;31.23;10.55;;;;;;;8.43;100.00;100558.47;8323647;28;20414;-50
2022/12/24 18:07:34;;;;;;;35.88;7.93;;;;;;;8.57;100.00;100578.91;8324057;28;20037;-52
2022/12/24 18:11:36;;;;;;;32.20;7.85;;;;;;;8.58;100.00;100585.97;8323459;28;20056;-51
2022/12/24 18:15:39;;;;;;;25.70;7.20;;;;;;;8.66;100.00;100589.75;8323989;28;20044;-50
2022/12/24 18:19:39;;;;;;;31.42;6.78;;;;;;;8.60;100.00;100590.25;8311346;28;20069;-50
2022/12/24 18:23:42;;;;;;;32.05;7.43;;;;;;;8.52;100.00;100587.34;8321709;28;20036;-51
2022/12/24 18:27:42;;;;;;;34.95;8.85;;;;;;;8.48;100.00;100595.81;8317297;28;20098;-50
2022/12/24 18:31:43;;;;;;;32.55;7.30;;;;;;;8.48;100.00;100579.66;8322022;28;20038;-51
2022/12/24 18:35:44;;;;;;;34.05;8.77;;;;;;;8.37;100.00;100576.97;8301538;28;20045;-50
2022/12/24 18:39:44;;;;;;;29.95;8.85;;;;;;;8.11;100.00;100575.50;8301360;28;20133;-50
2022/12/24 18:43:45;;;;;;;36.15;13.68;;;;;;;8.06;100.00;100557.88;8293649;28;20034;-50
2022/12/24 18:47:46;;;;;;;61.03;26.38;;;;;;;8.12;100.00;100558.38;8302520;28;20068;-50
2022/12/24 18:51:47;;;;;;;56.05;21.25;;;;;;;8.26;100.00;100564.38;8327029;28;20034;-51
2022/12/24 18:55:48;;;;;;;83.28;36.25;;;;;;;8.37;100.00;100563.50;8290730;28;20041;-51
2022/12/24 18:59:48;;;;;;;85.55;37.35;;;;;;;8.24;100.00;100560.09;8314649;28;20048;-50
2022/12/24 19:03:49;;;;;;;28.02;8.82;;;;;;;7.88;100.00;100562.06;8317378;28;20106;-51
2022/12/24 19:07:50;;;;;;;28.55;9.50;;;;;;;7.98;100.00;100546.88;8329343;28;20040;-50